Time;durP1;ratioP1;P1;durP2;ratioP2;P2;SDS_P1;SDS_P2;PMS_P1;PMS_P2;Temp;Humidity;BMP_temperature;BMP_pressure;BME280_temperature;BME280_humidity;BME280_pressure;Samples;Min_cycle;Max_cycle;Signal;HPM_P1;HPM_P2
2023/09/26 00:01:32;;;;;;;8.70;5.25;;;;;;;7.72;100.00;99265.41;6109683;19;20357;-73
2023/09/26 00:03:32;;;;;;;18.35;6.70;;;;;;;7.69;100.00;99271.59;6109679;19;20014;-73
2023/09/26 00:05:33;;;;;;;7.72;5.57;;;;;;;7.71;100.00;99269.31;6109068;19;20414;-73
2023/09/26 00:07:33;;;;;;;7.53;5.43;;;;;;;7.71;100.00;99274.03;6109288;19;20015;-73
2023/09/26 00:09:35;;;;;;;7.35;4.78;;;;;;;7.75;100.00;99273.00;6105712;19;20010;-73
2023/09/26 00:11:35;;;;;;;7.23;5.77;;;;;;;7.71;100.00;99271.28;6110201;19;20006;-73
2023/09/26 00:13:35;;;;;;;5.93;5.32;;;;;;;7.67;100.00;99271.13;6109358;19;20259;-73
2023/09/26 00:15:36;;;;;;;8.15;5.75;;;;;;;7.66;100.00;99268.72;6108507;19;20010;-73
2023/09/26 00:17:37;;;;;;;8.93;6.28;;;;;;;7.65;100.00;99269.88;6108714;19;20014;-73
2023/09/26 00:19:37;;;;;;;8.23;5.72;;;;;;;7.60;100.00;99266.16;6107858;19;20014;-73
2023/09/26 00:21:37;;;;;;;9.13;5.32;;;;;;;7.57;100.00;99263.31;6106309;19;20383;-73
2023/09/26 00:23:38;;;;;;;7.93;5.75;;;;;;;7.51;100.00;99279.22;6109796;19;20475;-73
2023/09/26 00:25:38;;;;;;;7.30;5.70;;;;;;;7.40;100.00;99271.72;6108924;19;20406;-73
2023/09/26 00:27:38;;;;;;;8.05;5.55;;;;;;;7.35;100.00;99271.91;6109255;19;20011;-73
2023/09/26 00:29:40;;;;;;;6.70;5.35;;;;;;;7.27;100.00;99268.09;6106931;19;20016;-73
2023/09/26 00:31:40;;;;;;;9.20;6.18;;;;;;;7.22;100.00;99271.88;6108821;19;20043;-73
2023/09/26 00:33:40;;;;;;;5.95;4.97;;;;;;;7.29;100.00;99271.34;6108300;19;20336;-73
2023/09/26 00:35:41;;;;;;;8.02;5.97;;;;;;;7.28;100.00;99272.47;6108099;19;20514;-73
2023/09/26 00:37:42;;;;;;;6.43;5.47;;;;;;;7.23;100.00;99267.19;6108539;19;20062;-73
2023/09/26 00:39:43;;;;;;;5.95;5.18;;;;;;;7.20;100.00;99270.59;6106485;19;20010;-73
2023/09/26 00:41:43;;;;;;;9.25;5.93;;;;;;;7.13;100.00;99267.59;6108644;19;20042;-73
2023/09/26 00:43:44;;;;;;;8.60;5.55;;;;;;;7.08;100.00;99265.81;6108088;19;20002;-73
2023/09/26 00:45:44;;;;;;;11.82;6.57;;;;;;;7.03;100.00;99260.50;6108548;19;20291;-73
2023/09/26 00:47:45;;;;;;;9.18;6.22;;;;;;;7.02;100.00;99261.66;6107789;19;20011;-73
2023/09/26 00:49:45;;;;;;;8.23;6.03;;;;;;;7.04;100.00;99253.91;6104008;19;20014;-73
2023/09/26 00:51:47;;;;;;;7.43;6.25;;;;;;;7.03;100.00;99261.34;6101098;19;20851;-73
2023/09/26 00:53:47;;;;;;;7.90;5.75;;;;;;;7.03;100.00;99260.50;6101446;19;20361;-73
2023/09/26 00:55:53;;;;;;;7.13;5.57;;;;;;;7.02;100.00;99258.91;6101494;19;20346;-73
2023/09/26 00:57:54;;;;;;;8.25;5.07;;;;;;;6.97;100.00;99239.88;6100909;19;20347;-73
2023/09/26 00:59:55;;;;;;;7.63;6.05;;;;;;;6.96;100.00;99254.78;6099801;19;20106;-73
2023/09/26 01:01:55;;;;;;;7.85;5.70;;;;;;;6.91;100.00;99249.47;6100520;19;20031;-73
2023/09/26 01:03:57;;;;;;;6.43;5.20;;;;;;;6.86;100.00;99249.63;6098474;19;20014;-73
2023/09/26 01:05:58;;;;;;;5.43;4.90;;;;;;;6.81;100.00;99233.34;6100448;19;20029;-73
2023/09/26 01:07:59;;;;;;;8.40;6.25;;;;;;;6.81;100.00;99244.34;6101110;19;20010;-73
2023/09/26 01:10:00;;;;;;;6.72;5.65;;;;;;;6.81;100.00;99239.66;6099446;19;20297;-73
2023/09/26 01:12:00;;;;;;;7.28;5.90;;;;;;;6.82;100.00;99238.50;6100712;19;20002;-73
2023/09/26 01:14:01;;;;;;;6.82;5.38;;;;;;;6.80;100.00;99229.81;6100696;19;20025;-73
2023/09/26 01:16:14;;;;;;;5.88;4.70;;;;;;;6.80;100.00;99224.28;6100034;19;19999;-73
2023/09/26 01:18:15;;;;;;;;;;;;;;;6.79;100.00;99219.94;6101428;19;20006;-73
2023/09/26 01:20:16;;;;;;;5.47;4.13;;;;;;;6.74;100.00;99229.19;6096080;19;19921;-73
2023/09/26 01:22:18;;;;;;;7.30;4.65;;;;;;;6.74;100.00;99231.94;6099841;19;20041;-73
2023/09/26 01:24:18;;;;;;;5.43;4.57;;;;;;;6.79;100.00;99235.66;6099516;19;20011;-73
2023/09/26 01:26:19;;;;;;;6.40;4.57;;;;;;;6.79;100.00;99230.94;6100964;19;20319;-73
2023/09/26 01:28:19;;;;;;;7.18;4.75;;;;;;;6.82;100.00;99235.75;6100330;19;19999;-73
2023/09/26 01:30:20;;;;;;;5.70;4.85;;;;;;;6.83;100.00;99231.88;6102655;19;19994;-73
2023/09/26 01:32:20;;;;;;;6.82;4.65;;;;;;;6.86;100.00;99235.88;6105910;19;20028;-73
2023/09/26 01:34:21;;;;;;;5.63;4.60;;;;;;;6.89;100.00;99224.22;6105237;19;20529;-73
2023/09/26 01:36:22;;;;;;;6.97;4.78;;;;;;;6.90;100.00;99229.41;6105031;19;20278;-73
2023/09/26 01:38:25;;;;;;;6.68;5.10;;;;;;;6.86;100.00;99222.13;6105162;19;20324;-73
2023/09/26 01:40:25;;;;;;;9.27;4.97;;;;;;;6.82;100.00;99223.97;6104339;19;20304;-73
2023/09/26 01:42:26;;;;;;;10.80;6.20;;;;;;;6.72;100.00;99225.16;6104757;19;20014;-73
2023/09/26 01:44:27;;;;;;;6.70;5.25;;;;;;;6.67;100.00;99220.66;6105374;19;20013;-73
2023/09/26 01:46:28;;;;;;;7.68;5.55;;;;;;;6.57;100.00;99226.56;6106062;19;20486;-73
2023/09/26 01:48:28;;;;;;;6.53;5.47;;;;;;;6.48;100.00;99217.56;6104233;19;19999;-73
2023/09/26 01:50:28;;;;;;;11.60;5.90;;;;;;;6.42;100.00;99227.13;6106627;19;20117;-74
2023/09/26 01:52:32;;;;;;;10.05;6.28;;;;;;;6.38;100.00;99235.25;6112512;19;20010;-74
2023/09/26 01:54:32;;;;;;;8.77;6.03;;;;;;;6.30;100.00;99221.53;6111837;19;20491;-74
2023/09/26 01:56:32;;;;;;;7.45;5.68;;;;;;;6.27;100.00;99223.00;6113513;19;20010;-74
2023/09/26 01:58:33;;;;;;;7.55;4.75;;;;;;;6.32;100.00;99222.00;6111043;19;20022;-74
2023/09/26 02:00:34;;;;;;;12.27;5.95;;;;;;;6.31;100.00;99221.22;6110698;19;20018;-73
2023/09/26 02:02:34;;;;;;;8.48;5.70;;;;;;;6.31;100.00;99225.91;6112712;19;20018;-74
2023/09/26 02:04:35;;;;;;;9.35;6.03;;;;;;;6.22;100.00;99225.94;6112105;19;20010;-74
2023/09/26 02:06:35;;;;;;;7.25;6.03;;;;;;;6.20;100.00;99218.00;6111977;19;20071;-74
2023/09/26 02:08:35;;;;;;;7.15;5.55;;;;;;;6.23;100.00;99211.06;6111779;19;20421;-74
2023/09/26 02:10:36;;;;;;;6.70;5.53;;;;;;;6.25;100.00;99210.72;6110614;19;20477;-74
2023/09/26 02:12:38;;;;;;;5.95;4.97;;;;;;;6.23;100.00;99204.78;6111282;19;20502;-73
2023/09/26 02:14:39;;;;;;;;;;;;;;;6.16;100.00;99211.59;6113850;19;20035;-71
2023/09/26 02:16:39;;;;;;;7.18;5.97;;;;;;;6.10;100.00;99215.63;6113631;19;19974;-74
2023/09/26 02:18:39;;;;;;;14.63;6.63;;;;;;;6.07;100.00;99210.00;6111731;19;20115;-74
2023/09/26 02:20:40;;;;;;;10.55;5.55;;;;;;;6.02;100.00;99212.94;6109303;19;20026;-74
2023/09/26 02:22:41;;;;;;;8.73;6.25;;;;;;;6.01;100.00;99223.13;6113167;19;20339;-74
2023/09/26 02:24:42;;;;;;;11.67;6.37;;;;;;;5.99;100.00;99210.84;6112523;19;20045;-74
2023/09/26 02:26:42;;;;;;;8.00;5.68;;;;;;;5.93;100.00;99210.22;6112289;19;20007;-74
2023/09/26 02:28:42;;;;;;;9.45;6.60;;;;;;;5.85;100.00;99205.53;6112658;19;20002;-74
2023/09/26 02:30:43;;;;;;;7.85;6.53;;;;;;;5.84;100.00;99206.69;6111559;19;20095;-74
2023/09/26 02:32:43;;;;;;;7.43;5.68;;;;;;;5.82;100.00;99207.00;6112330;19;20002;-73
2023/09/26 02:34:44;;;;;;;11.02;7.07;;;;;;;5.81;100.00;99210.09;6111794;19;20020;-73
2023/09/26 02:36:44;;;;;;;9.73;6.00;;;;;;;5.83;100.00;99205.88;6113007;19;20011;-73
2023/09/26 02:38:45;;;;;;;8.98;6.70;;;;;;;5.82;100.00;99209.75;6113103;19;20011;-73
2023/09/26 02:40:45;;;;;;;9.13;6.38;;;;;;;5.80;100.00;99211.22;6109687;19;20002;-73
2023/09/26 02:42:46;;;;;;;9.15;5.70;;;;;;;5.76;100.00;99221.25;6112585;19;20014;-73
2023/09/26 02:44:46;;;;;;;9.48;6.00;;;;;;;5.73;100.00;99216.41;6111751;19;20331;-73
2023/09/26 02:46:46;;;;;;;9.85;6.90;;;;;;;5.65;100.00;99218.06;6111188;19;20003;-73
2023/09/26 02:48:47;;;;;;;9.18;7.20;;;;;;;5.62;100.00;99205.78;6111629;19;20029;-73
2023/09/26 02:50:47;;;;;;;11.40;7.88;;;;;;;5.62;100.00;99204.97;6111760;19;20039;-74
2023/09/26 02:52:47;;;;;;;12.07;7.22;;;;;;;5.65;100.00;99212.56;6112011;19;20029;-74
2023/09/26 02:54:48;;;;;;;11.82;8.75;;;;;;;5.60;100.00;99208.03;6112170;19;20011;-73
2023/09/26 02:56:48;;;;;;;10.27;7.28;;;;;;;5.66;100.00;99208.69;6112611;19;20014;-73
2023/09/26 02:58:48;;;;;;;10.82;8.13;;;;;;;5.64;100.00;99209.00;6111226;19;20517;-73
2023/09/26 03:00:50;;;;;;;11.38;8.77;;;;;;;5.60;100.00;99207.25;6110054;19;20450;-73
2023/09/26 03:02:50;;;;;;;14.30;8.70;;;;;;;5.59;100.00;99211.94;6111968;19;20007;-73
2023/09/26 03:04:50;;;;;;;12.65;8.85;;;;;;;5.59;100.00;99208.38;6111070;19;20502;-73
2023/09/26 03:06:51;;;;;;;14.00;9.02;;;;;;;5.57;100.00;99211.44;6112518;19;20014;-73
2023/09/26 03:08:51;;;;;;;12.57;8.40;;;;;;;5.54;100.00;99217.56;6110989;19;20014;-73
2023/09/26 03:10:52;;;;;;;11.32;8.70;;;;;;;5.54;100.00;99222.25;6110037;19;20462;-73
2023/09/26 03:12:52;;;;;;;10.65;8.38;;;;;;;5.52;100.00;99214.34;6111968;19;20006;-73
2023/09/26 03:14:54;;;;;;;15.32;10.25;;;;;;;5.51;100.00;99204.53;6111055;19;20096;-74
2023/09/26 03:16:54;;;;;;;18.13;12.77;;;;;;;5.49;100.00;99214.22;6111308;19;20014;-73
2023/09/26 03:18:55;;;;;;;20.67;13.13;;;;;;;5.44;100.00;99201.47;6110252;19;20027;-73
2023/09/26 03:20:56;;;;;;;17.50;12.13;;;;;;;5.39;100.00;99200.84;6108066;19;20010;-73
2023/09/26 03:22:56;;;;;;;20.95;12.55;;;;;;;5.38;100.00;99202.78;6111625;19;20007;-73
2023/09/26 03:24:56;;;;;;;17.90;11.60;;;;;;;5.35;100.00;99203.41;6111584;19;20013;-73
2023/09/26 03:26:57;;;;;;;15.98;10.82;;;;;;;5.36;100.00;99196.78;6111235;19;20002;-73
2023/09/26 03:28:57;;;;;;;14.43;10.50;;;;;;;5.41;100.00;99204.06;6110128;19;20003;-73
2023/09/26 03:30:57;;;;;;;15.13;10.05;;;;;;;5.36;100.00;99199.53;6109729;19;20014;-73
2023/09/26 03:32:58;;;;;;;13.15;10.15;;;;;;;5.34;100.00;99197.13;6110698;19;20005;-73
2023/09/26 03:34:58;;;;;;;14.65;10.13;;;;;;;5.29;100.00;99196.47;6110726;19;20090;-73
2023/09/26 03:36:58;;;;;;;10.57;8.38;;;;;;;5.30;100.00;99195.38;6111076;19;20411;-73
2023/09/26 03:38:59;;;;;;;10.95;9.15;;;;;;;5.32;100.00;99191.16;6110322;19;20312;-73
2023/09/26 03:41:01;;;;;;;12.45;8.55;;;;;;;5.33;100.00;99190.03;6108796;19;20030;-73
2023/09/26 03:43:02;;;;;;;10.18;7.30;;;;;;;5.28;100.00;99178.41;6111367;19;20009;-73
2023/09/26 03:45:02;;;;;;;11.40;8.63;;;;;;;5.29;100.00;99186.31;6110476;19;20003;-73
2023/09/26 03:47:03;;;;;;;11.88;8.45;;;;;;;5.34;100.00;99193.59;6109808;19;20466;-73
2023/09/26 03:49:03;;;;;;;11.93;7.95;;;;;;;5.34;100.00;99190.84;6109677;19;20033;-73
2023/09/26 03:51:14;;;;;;;8.75;7.25;;;;;;;5.38;100.00;99197.31;6109562;19;20794;-73
2023/09/26 03:53:14;;;;;;;11.10;8.05;;;;;;;5.34;100.00;99188.91;6109136;19;20326;-73
2023/09/26 03:55:14;;;;;;;12.27;8.55;;;;;;;5.32;100.00;99190.38;6110142;19;20432;-73
2023/09/26 03:57:15;;;;;;;14.68;8.88;;;;;;;5.27;100.00;99191.31;6110097;19;20336;-73
2023/09/26 03:59:16;;;;;;;11.20;8.68;;;;;;;5.28;100.00;99192.94;6109042;19;20003;-73
2023/09/26 04:01:16;;;;;;;15.10;7.82;;;;;;;5.34;100.00;99199.88;6108578;19;20003;-73
2023/09/26 04:03:19;;;;;;;11.23;8.00;;;;;;;5.33;100.00;99198.25;6110100;19;19998;-73
2023/09/26 04:05:19;;;;;;;10.65;7.60;;;;;;;5.30;100.00;99192.63;6109236;19;20340;-73
2023/09/26 04:07:19;;;;;;;10.80;7.35;;;;;;;5.22;100.00;99187.97;6108641;19;20010;-73
2023/09/26 04:09:20;;;;;;;15.77;8.40;;;;;;;5.17;100.00;99197.16;6108064;19;20011;-73
2023/09/26 04:11:20;;;;;;;12.60;8.05;;;;;;;5.13;100.00;99187.97;6109179;19;20462;-73
2023/09/26 04:13:20;;;;;;;12.13;8.70;;;;;;;5.13;100.00;99195.38;6109495;19;20401;-73
2023/09/26 04:15:21;;;;;;;11.10;8.45;;;;;;;5.03;100.00;99189.09;6108853;19;19999;-73
2023/09/26 04:17:21;;;;;;;13.52;8.93;;;;;;;4.97;100.00;99192.34;6110367;19;20006;-73
2023/09/26 04:19:22;;;;;;;12.73;8.43;;;;;;;4.90;100.00;99189.28;6108070;19;20466;-73
2023/09/26 04:21:22;;;;;;;12.48;8.15;;;;;;;4.89;100.00;99184.94;6107267;19;20811;-73
2023/09/26 04:23:22;;;;;;;15.30;8.65;;;;;;;4.84;100.00;99183.16;6109310;19;20006;-73
2023/09/26 04:25:23;;;;;;;11.50;8.15;;;;;;;4.86;100.00;99191.84;6108843;19;20006;-73
2023/09/26 04:27:23;;;;;;;12.07;8.52;;;;;;;4.89;100.00;99184.94;6109606;19;20005;-73
2023/09/26 04:29:24;;;;;;;17.50;8.45;;;;;;;4.90;100.00;99184.59;6107262;19;19999;-73
2023/09/26 04:31:24;;;;;;;10.95;8.15;;;;;;;4.89;100.00;99182.19;6108590;19;20529;-73
2023/09/26 04:33:24;;;;;;;14.88;8.40;;;;;;;4.87;100.00;99177.00;6109175;19;20020;-73
2023/09/26 04:35:25;;;;;;;11.95;7.35;;;;;;;4.90;100.00;99183.81;6109235;19;20382;-73
2023/09/26 04:37:25;;;;;;;11.43;7.90;;;;;;;4.90;100.00;99181.88;6109312;19;20010;-73
2023/09/26 04:39:25;;;;;;;12.85;7.40;;;;;;;4.87;100.00;99174.25;6107237;19;20007;-73
2023/09/26 04:41:26;;;;;;;10.50;7.90;;;;;;;4.87;100.00;99179.75;6109603;19;20033;-73
2023/09/26 04:43:26;;;;;;;12.63;7.88;;;;;;;4.90;100.00;99184.59;6108136;19;20062;-73
2023/09/26 04:45:31;;;;;;;11.00;7.28;;;;;;;4.92;100.00;99179.59;6108523;19;20014;-73
2023/09/26 04:47:31;;;;;;;18.33;7.78;;;;;;;4.90;100.00;99173.63;6108782;19;20002;-73
2023/09/26 04:49:34;;;;;;;12.55;8.45;;;;;;;4.89;100.00;99180.25;6097504;19;20003;-73
2023/09/26 04:51:34;;;;;;;10.68;7.20;;;;;;;4.85;100.00;99175.72;6108112;19;20094;-73
2023/09/26 04:53:35;;;;;;;16.45;8.05;;;;;;;4.81;100.00;99185.75;6108329;19;20006;-73
2023/09/26 04:55:36;;;;;;;11.50;7.63;;;;;;;4.83;100.00;99180.72;6108242;19;20525;-73
2023/09/26 04:57:37;;;;;;;15.77;7.35;;;;;;;4.81;100.00;99183.00;6108278;19;20010;-73
2023/09/26 04:59:37;;;;;;;13.27;8.15;;;;;;;4.81;100.00;99174.78;6106080;19;20430;-73
2023/09/26 05:01:38;;;;;;;11.45;7.90;;;;;;;4.82;100.00;99173.63;6107945;19;20006;-73
2023/09/26 05:03:38;;;;;;;14.52;8.02;;;;;;;4.85;100.00;99173.78;6107093;19;20027;-73
2023/09/26 05:05:38;;;;;;;13.23;7.65;;;;;;;4.86;100.00;99164.44;6107521;19;20010;-73
2023/09/26 05:07:43;;;;;;;13.00;7.45;;;;;;;4.84;100.00;99172.19;6105678;19;20038;-73
2023/09/26 05:09:44;;;;;;;8.45;6.43;;;;;;;4.79;100.00;99170.41;6104284;19;20333;-73
2023/09/26 05:11:44;;;;;;;9.25;7.07;;;;;;;4.79;100.00;99161.38;6107205;19;20010;-73
2023/09/26 05:13:44;;;;;;;13.20;7.20;;;;;;;4.81;100.00;99172.03;6107560;19;20007;-73
2023/09/26 05:15:45;;;;;;;11.77;8.30;;;;;;;4.74;100.00;99178.78;6107993;19;20007;-73
2023/09/26 05:17:48;;;;;;;12.55;8.48;;;;;;;4.68;100.00;99180.06;6108239;19;20010;-73
2023/09/26 05:19:48;;;;;;;14.27;8.18;;;;;;;4.64;100.00;99173.63;6106343;19;20014;-73
2023/09/26 05:21:48;;;;;;;12.10;7.70;;;;;;;4.68;100.00;99180.06;6104950;19;20474;-73
2023/09/26 05:23:48;;;;;;;17.63;8.15;;;;;;;4.75;100.00;99174.94;6107334;19;20011;-73
2023/09/26 05:25:49;;;;;;;11.85;7.53;;;;;;;4.82;100.00;99168.16;6106977;19;20493;-72
2023/09/26 05:27:49;;;;;;;12.98;7.78;;;;;;;4.81;100.00;99183.81;6106916;19;20010;-73
2023/09/26 05:29:50;;;;;;;10.75;7.07;;;;;;;4.78;100.00;99178.94;6105359;19;20021;-73
2023/09/26 05:31:50;;;;;;;14.57;7.40;;;;;;;4.76;100.00;99184.75;6107365;19;20519;-73
2023/09/26 05:33:52;;;;;;;13.07;8.38;;;;;;;4.77;100.00;99180.88;6107116;19;20014;-73
2023/09/26 05:35:54;;;;;;;11.50;7.05;;;;;;;4.83;100.00;99188.97;6106350;19;20011;-73
2023/09/26 05:37:54;;;;;;;12.05;7.60;;;;;;;4.82;100.00;99179.13;6106867;19;20121;-73
2023/09/26 05:39:55;;;;;;;16.05;7.88;;;;;;;4.82;100.00;99173.63;6106031;19;20006;-73
2023/09/26 05:41:55;;;;;;;15.40;7.68;;;;;;;4.82;100.00;99184.59;6106481;19;20327;-73
2023/09/26 05:43:56;;;;;;;11.60;7.53;;;;;;;4.85;100.00;99182.00;6106806;19;20028;-73
2023/09/26 05:45:56;;;;;;;10.88;7.50;;;;;;;4.94;100.00;99179.28;6106908;19;20036;-73
2023/09/26 05:47:56;;;;;;;11.00;7.22;;;;;;;5.01;100.00;99183.13;6105947;19;20066;-73
2023/09/26 05:49:57;;;;;;;13.13;7.80;;;;;;;5.04;100.00;99184.41;6101759;19;20396;-73
2023/09/26 05:51:57;;;;;;;13.15;7.15;;;;;;;5.03;100.00;99175.38;6100438;19;20687;-73
2023/09/26 05:53:57;;;;;;;12.32;7.93;;;;;;;5.05;100.00;99178.63;6099418;19;20014;-73
2023/09/26 05:55:58;;;;;;;14.18;7.57;;;;;;;5.10;100.00;99176.84;6100076;19;20345;-73
2023/09/26 05:57:58;;;;;;;10.95;6.60;;;;;;;5.15;100.00;99182.16;6099233;19;20047;-73
2023/09/26 05:59:59;;;;;;;11.45;7.38;;;;;;;5.20;100.00;99177.28;6097912;19;20011;-73
2023/09/26 06:01:59;;;;;;;10.38;6.82;;;;;;;5.25;100.00;99179.06;6099630;19;20322;-73
2023/09/26 06:03:59;;;;;;;9.85;6.30;;;;;;;5.31;100.00;99180.53;6099475;19;20458;-73
2023/09/26 06:06:03;;;;;;;9.15;7.03;;;;;;;5.36;100.00;99183.06;6099686;19;20525;-73
2023/09/26 06:08:04;;;;;;;9.55;6.28;;;;;;;5.38;100.00;99175.34;6098704;19;20003;-73
2023/09/26 06:10:05;;;;;;;9.43;6.15;;;;;;;5.41;100.00;99180.16;6096074;19;20472;-73
2023/09/26 06:12:06;;;;;;;9.18;6.72;;;;;;;5.42;100.00;99181.78;6099261;19;20083;-73
2023/09/26 06:14:06;;;;;;;8.85;6.57;;;;;;;5.47;100.00;99170.63;6099114;19;20030;-73
2023/09/26 06:16:08;;;;;;;9.80;6.47;;;;;;;5.52;100.00;99178.69;6101714;19;20439;-73
2023/09/26 06:18:08;;;;;;;10.18;6.80;;;;;;;5.58;100.00;99168.34;6104978;19;20025;-73
2023/09/26 06:20:09;;;;;;;8.32;6.03;;;;;;;5.68;100.00;99175.41;6102730;19;20443;-73
2023/09/26 06:22:10;;;;;;;9.15;5.85;;;;;;;5.76;100.00;99174.56;6103426;19;20023;-73
2023/09/26 06:24:10;;;;;;;9.38;6.10;;;;;;;5.82;100.00;99171.31;6104429;19;20194;-73
2023/09/26 06:26:11;;;;;;;10.68;6.78;;;;;;;5.90;100.00;99169.66;6104682;19;20003;-73
2023/09/26 06:28:11;;;;;;;8.65;6.22;;;;;;;5.98;100.00;99174.34;6105237;19;20601;-73
2023/09/26 06:30:11;;;;;;;13.50;6.47;;;;;;;6.05;100.00;99169.16;6102241;19;20454;-73
2023/09/26 06:32:13;;;;;;;11.70;6.43;;;;;;;6.12;100.00;99176.84;6104458;19;20010;-73
2023/09/26 06:34:13;;;;;;;8.85;5.78;;;;;;;6.18;100.00;99170.84;6105169;19;20757;-73
2023/09/26 06:36:17;;;;;;;7.25;5.47;;;;;;;6.25;100.00;99177.75;6104550;19;20082;-73
2023/09/26 06:38:18;;;;;;;7.30;5.68;;;;;;;6.30;100.00;99178.38;6104446;19;20003;-73
2023/09/26 06:40:18;;;;;;;12.15;7.22;;;;;;;6.37;100.00;99177.81;6102404;19;20251;-73
2023/09/26 06:42:18;;;;;;;12.82;8.43;;;;;;;6.47;100.00;99181.00;6104774;19;20380;-73
2023/09/26 06:44:19;;;;;;;10.75;7.53;;;;;;;6.54;100.00;99177.75;6105018;19;20010;-73
2023/09/26 06:46:19;;;;;;;15.85;7.50;;;;;;;6.64;100.00;99182.03;6104309;19;20026;-73
2023/09/26 06:48:20;;;;;;;14.18;7.80;;;;;;;6.75;100.00;99181.28;6104909;19;20023;-73
2023/09/26 06:50:21;;;;;;;13.90;8.55;;;;;;;6.93;100.00;99181.13;6105606;19;20078;-73
2023/09/26 06:52:22;;;;;;;13.52;8.00;;;;;;;7.05;100.00;99183.97;6111430;19;20034;-73
2023/09/26 06:54:23;;;;;;;12.70;8.07;;;;;;;7.11;100.00;99181.78;6110507;19;20074;-73
2023/09/26 06:56:23;;;;;;;14.15;8.20;;;;;;;7.16;100.00;99176.09;6112238;19;20011;-73
2023/09/26 06:58:24;;;;;;;8.40;7.00;;;;;;;7.18;100.00;99185.59;6109478;19;20010;-73
2023/09/26 07:00:24;;;;;;;17.90;7.65;;;;;;;7.24;100.00;99183.47;6108040;19;20685;-73
2023/09/26 07:02:25;;;;;;;23.02;8.77;;;;;;;7.31;100.00;99186.47;6111506;19;20566;-74
2023/09/26 07:04:25;;;;;;;24.65;8.43;;;;;;;7.42;100.00;99173.88;6110011;19;20015;-73
2023/09/26 07:06:25;;;;;;;19.50;8.45;;;;;;;7.54;100.00;99173.13;6110657;19;20044;-73
2023/09/26 07:08:26;;;;;;;14.80;7.38;;;;;;;7.59;100.00;99176.44;6110666;19;20462;-73
2023/09/26 07:10:26;;;;;;;11.98;7.80;;;;;;;7.66;100.00;99175.88;6109152;19;20011;-73
2023/09/26 07:12:26;;;;;;;15.75;8.38;;;;;;;7.78;100.00;99178.66;6110374;19;20010;-73
2023/09/26 07:14:32;;;;;;;10.70;8.02;;;;;;;7.86;100.00;99174.16;6110216;19;20007;-73
2023/09/26 07:16:33;;;;;;;12.60;8.27;;;;;;;7.90;100.00;99166.84;6110621;19;20017;-73
2023/09/26 07:18:36;;;;;;;17.13;8.55;;;;;;;7.96;100.00;99173.75;6110537;19;20442;-73
2023/09/26 07:20:43;;;;;;;10.55;7.32;;;;;;;8.01;100.00;99168.00;6107682;19;20018;-73
2023/09/26 07:22:44;;;;;;;11.13;7.20;;;;;;;8.09;100.00;99172.59;6109796;19;20031;-73
2023/09/26 07:24:49;;;;;;;11.23;7.88;;;;;;;8.14;100.00;99175.13;6109983;19;20003;-73
2023/09/26 07:26:50;;;;;;;10.48;6.78;;;;;;;8.22;100.00;99172.59;6107359;19;20474;-73
2023/09/26 07:28:51;;;;;;;10.38;7.25;;;;;;;8.30;100.00;99179.94;6109619;19;20630;-73
2023/09/26 07:30:53;;;;;;;9.93;7.88;;;;;;;8.38;100.00;99171.56;6108871;19;20010;-73
2023/09/26 07:32:53;;;;;;;11.23;7.78;;;;;;;8.48;100.00;99173.06;6109042;19;20447;-73
2023/09/26 07:34:53;;;;;;;12.73;8.07;;;;;;;8.64;100.00;99178.66;6106984;19;20009;-73
2023/09/26 07:36:54;;;;;;;11.30;8.70;;;;;;;8.76;100.00;99178.63;6109181;19;20370;-73
2023/09/26 07:38:54;;;;;;;11.77;7.93;;;;;;;8.85;100.00;99179.28;6108812;19;20032;-73
2023/09/26 07:40:55;;;;;;;11.13;9.07;;;;;;;8.99;100.00;99176.13;6108122;19;20270;-73
2023/09/26 07:42:55;;;;;;;17.95;9.32;;;;;;;9.11;100.00;99189.09;6109246;19;20375;-74
2023/09/26 07:44:58;;;;;;;12.85;8.70;;;;;;;9.21;100.00;99180.31;6108951;19;20046;-73
2023/09/26 07:46:58;;;;;;;;;;;;;;;9.40;100.00;99171.38;6109528;19;20010;-73
2023/09/26 07:48:58;;;;;;;17.35;9.23;;;;;;;9.50;100.00;99173.59;6108327;19;20391;-73
2023/09/26 07:50:59;;;;;;;12.13;8.98;;;;;;;9.65;100.00;99178.34;6108427;19;20007;-74
2023/09/26 07:53:01;;;;;;;10.85;8.35;;;;;;;9.70;100.00;99180.06;6109049;19;20074;-73
2023/09/26 07:55:02;;;;;;;;;;;;;;;9.76;100.00;99173.09;6109736;19;20066;-73
2023/09/26 07:57:02;;;;;;;9.82;7.88;;;;;;;9.77;100.00;99171.97;6108642;19;19922;-73
2023/09/26 07:59:03;;;;;;;10.80;8.45;;;;;;;9.85;100.00;99170.97;6109383;19;20013;-73
2023/09/26 08:01:06;;;;;;;10.68;9.13;;;;;;;9.96;100.00;99179.53;6107524;19;20014;-73
2023/09/26 08:03:07;;;;;;;12.30;9.35;;;;;;;10.03;100.00;99165.91;6109313;19;20023;-73
2023/09/26 08:05:07;;;;;;;11.90;9.10;;;;;;;10.08;100.00;99169.16;6109435;19;20337;-74
2023/09/26 08:07:08;;;;;;;11.80;9.05;;;;;;;10.13;100.00;99170.88;6109093;19;20070;-73
2023/09/26 08:09:10;;;;;;;11.65;7.63;;;;;;;10.17;100.00;99163.44;6109143;19;20003;-73
2023/09/26 08:11:11;;;;;;;12.02;9.50;;;;;;;10.28;100.00;99169.28;6108625;19;20063;-73
2023/09/26 08:13:12;;;;;;;10.23;8.55;;;;;;;10.38;100.00;99164.00;6110060;19;20021;-73
2023/09/26 08:15:13;;;;;;;11.02;8.77;;;;;;;10.53;100.00;99165.13;6109427;19;20007;-73
2023/09/26 08:17:14;;;;;;;11.82;8.07;;;;;;;10.61;100.00;99164.13;6109507;19;20030;-74
2023/09/26 08:19:15;;;;;;;11.30;7.65;;;;;;;10.70;100.00;99166.69;6109040;19;20003;-73
2023/09/26 08:21:15;;;;;;;11.82;8.55;;;;;;;10.81;100.00;99170.47;6105258;19;20363;-74
2023/09/26 08:23:16;;;;;;;13.55;9.10;;;;;;;11.03;100.00;99163.44;6109310;19;20002;-73
2023/09/26 08:25:16;;;;;;;9.30;8.30;;;;;;;11.16;100.00;99162.09;6108867;19;20393;-74
2023/09/26 08:27:17;;;;;;;9.65;7.90;;;;;;;11.29;100.00;99165.53;6109342;19;20343;-73
2023/09/26 08:29:17;;;;;;;12.88;9.38;;;;;;;11.41;100.00;99159.00;6108484;19;20548;-74
2023/09/26 08:31:17;;;;;;;13.30;8.68;;;;;;;11.47;100.00;99155.59;6107636;19;20366;-74
2023/09/26 08:33:18;;;;;;;9.75;7.88;;;;;;;11.51;100.00;99162.00;6108906;19;20006;-73
2023/09/26 08:35:18;;;;;;;10.13;7.32;;;;;;;11.56;100.00;99162.84;6108743;19;20135;-74
2023/09/26 08:37:19;;;;;;;8.88;7.45;;;;;;;11.58;100.00;99164.09;6105429;19;20007;-74
2023/09/26 08:39:19;;;;;;;10.82;7.57;;;;;;;11.60;100.00;99153.47;6107103;19;20101;-74
2023/09/26 08:41:19;;;;;;;12.55;7.32;;;;;;;11.65;100.00;99160.66;6105977;19;20003;-73
2023/09/26 08:43:27;;;;;;;8.57;7.60;;;;;;;11.69;100.00;99155.97;6108906;19;20007;-73
2023/09/26 08:45:27;;;;;;;10.02;7.40;;;;;;;11.73;100.00;99151.28;6108751;19;20007;-74
2023/09/26 08:47:28;;;;;;;10.75;7.55;;;;;;;11.80;100.00;99149.47;6107695;19;20335;-74
2023/09/26 08:49:28;;;;;;;10.68;7.05;;;;;;;11.90;100.00;99158.34;6107217;19;19999;-73
2023/09/26 08:51:29;;;;;;;9.15;7.68;;;;;;;11.96;100.00;99154.91;6107944;19;20078;-73
2023/09/26 08:53:29;;;;;;;7.40;6.63;;;;;;;12.06;100.00;99154.25;6107674;19;20030;-74
2023/09/26 08:55:30;;;;;;;8.52;6.68;;;;;;;12.27;100.00;99155.78;6108880;19;20027;-74
2023/09/26 08:57:32;;;;;;;11.00;7.35;;;;;;;12.41;100.00;99142.09;6107283;19;20011;-74
2023/09/26 08:59:33;;;;;;;7.63;6.80;;;;;;;12.50;100.00;99144.63;6107310;19;20036;-74
2023/09/26 09:01:34;;;;;;;9.32;6.88;;;;;;;12.60;100.00;99146.75;6107636;19;20011;-74
2023/09/26 09:03:35;;;;;;;9.90;6.28;;;;;;;12.67;100.00;99138.53;6109005;19;20337;-74
2023/09/26 09:05:35;;;;;;;8.18;6.32;;;;;;;12.77;100.00;99131.53;6107529;19;20033;-74
2023/09/26 09:07:39;;;;;;;9.75;6.30;;;;;;;12.94;100.00;99139.28;6108589;19;20015;-74
2023/09/26 09:10:07;;;;;;;7.43;6.63;;;;;;;13.07;100.00;99132.28;6106704;19;20019;-74
2023/09/26 09:12:24;;;;;;;8.40;6.18;;;;;;;13.18;100.00;99136.00;6106627;19;20332;-74
2023/09/26 09:14:35;;;;;;;6.85;5.75;;;;;;;13.24;100.00;99128.16;6107171;19;20094;-74
2023/09/26 09:16:36;;;;;;;6.75;5.13;;;;;;;13.28;100.00;99134.53;6108117;19;20007;-74
2023/09/26 09:18:46;;;;;;;6.85;5.85;;;;;;;13.37;100.00;99126.69;6107076;19;20007;-72
2023/09/26 09:20:47;;;;;;;7.00;5.97;;;;;;;13.49;100.00;99126.44;6104052;19;20007;-74
2023/09/26 09:22:58;;;;;;;9.32;5.32;;;;;;;13.71;100.00;99121.06;6108834;19;20022;-74
2023/09/26 09:24:59;;;;;;;6.72;4.93;;;;;;;13.78;100.00;99123.94;6107812;19;20023;-73
2023/09/26 09:26:59;;;;;;;6.72;5.38;;;;;;;13.89;100.00;99116.47;6107817;19;20413;-73